Time;durP1;ratioP1;P1;durP2;ratioP2;P2;SDS_P1;SDS_P2;PMS_P1;PMS_P2;Temp;Humidity;BMP_temperature;BMP_pressure;BME280_temperature;BME280_humidity;BME280_pressure;Samples;Min_cycle;Max_cycle;Signal;HPM_P1;HPM_P2
2023/03/07 00:02:10;;;;;;;0.75;0.75;;;;;;;5.17;100.00;98931.50;6182892;23;20346;-90
2023/03/07 00:04:35;;;;;;;2.05;1.95;;;;;;;5.20;100.00;98936.16;6184699;23;20011;-91
2023/03/07 00:07:01;;;;;;;0.28;0.28;;;;;;;5.23;100.00;98937.25;6184825;23;20437;-90
2023/03/07 00:09:26;;;;;;;0.40;0.40;;;;;;;5.19;100.00;98931.84;6209076;23;20004;-90
2023/03/07 00:11:52;;;;;;;1.08;1.08;;;;;;;5.17;100.00;98926.00;6211217;23;20105;-90
2023/03/07 00:14:18;;;;;;;1.52;1.42;;;;;;;5.19;100.00;98926.34;6157199;23;20500;-90
2023/03/07 00:16:44;;;;;;;2.38;1.48;;;;;;;5.19;100.00;98923.59;6208673;23;20012;-89
2023/03/07 00:19:10;;;;;;;0.85;0.80;;;;;;;5.14;100.00;98911.13;6183272;23;20036;-90
2023/03/07 00:21:36;;;;;;;1.42;1.33;;;;;;;5.19;100.00;98912.59;6182643;23;20055;-89
2023/03/07 00:24:01;;;;;;;6.78;3.60;;;;;;;5.19;100.00;98918.09;6184939;23;20052;-90
2023/03/07 00:26:27;;;;;;;1.90;1.55;;;;;;;5.20;100.00;98918.88;6208081;23;20009;-90
2023/03/07 00:28:53;;;;;;;0.40;0.40;;;;;;;5.21;100.00;98926.72;6183339;23;20009;-90
2023/03/07 00:31:20;;;;;;;1.45;1.35;;;;;;;5.21;100.00;98926.72;6183478;23;20020;-90
2023/03/07 00:33:46;;;;;;;1.05;1.00;;;;;;;5.21;100.00;98921.22;6206918;23;20380;-90
2023/03/07 00:36:14;;;;;;;0.65;0.65;;;;;;;5.23;100.00;98918.78;6208418;23;20032;-90
2023/03/07 00:38:41;;;;;;;0.47;0.47;;;;;;;5.18;100.00;98910.28;6183951;23;20453;-90
2023/03/07 00:41:14;;;;;;;0.70;0.57;;;;;;;5.18;100.00;98910.28;6185471;23;20067;-90
2023/03/07 00:43:40;;;;;;;;;;;;;;;5.16;100.00;98921.72;6210095;23;20024;-90
2023/03/07 00:46:06;;;;;;;0.77;0.77;;;;;;;5.15;100.00;98917.41;6209795;23;19907;-89
2023/03/07 00:48:33;;;;;;;3.17;1.48;;;;;;;5.14;100.00;98910.34;6159081;23;20012;-90
2023/03/07 00:50:59;;;;;;;2.83;1.55;;;;;;;5.11;100.00;98913.97;6183454;23;20310;-90
2023/03/07 00:53:25;;;;;;;1.20;1.17;;;;;;;5.05;100.00;98910.97;6207654;23;20027;-90
2023/03/07 00:55:53;;;;;;;1.17;1.13;;;;;;;5.10;100.00;98920.66;6158545;23;20063;-90
2023/03/07 00:58:19;;;;;;;1.42;1.33;;;;;;;5.12;100.00;98915.50;6182140;23;20044;-90
2023/03/07 01:00:44;;;;;;;2.47;2.28;;;;;;;5.08;100.00;98920.31;6208222;23;20063;-90
2023/03/07 01:03:10;;;;;;;0.68;0.68;;;;;;;5.06;100.00;98919.97;6208024;23;20035;-91
2023/03/07 01:05:39;;;;;;;1.15;1.05;;;;;;;5.09;100.00;98925.41;6206811;23;20012;-90
2023/03/07 01:08:05;;;;;;;0.47;0.47;;;;;;;5.04;100.00;98906.66;6209922;23;20005;-90
2023/03/07 01:10:32;;;;;;;0.55;0.55;;;;;;;4.97;100.00;98898.59;6158467;23;20021;-90
2023/03/07 01:12:59;;;;;;;1.05;1.00;;;;;;;4.87;100.00;98893.31;6157735;23;20028;-89
2023/03/07 01:15:25;;;;;;;3.15;2.65;;;;;;;4.97;100.00;98906.06;6208687;23;20445;-90
2023/03/07 01:17:50;;;;;;;3.28;1.67;;;;;;;5.02;100.00;98913.75;6182969;23;20008;-89
2023/03/07 01:20:17;;;;;;;0.45;0.45;;;;;;;5.02;100.00;98913.75;6182245;23;20016;-90
2023/03/07 01:22:42;;;;;;;5.82;2.80;;;;;;;5.07;100.00;98916.00;6208990;23;20020;-90
2023/03/07 01:25:09;;;;;;;3.20;2.90;;;;;;;5.05;100.00;98904.69;6183806;23;20337;-90
2023/03/07 01:27:34;;;;;;;1.00;1.00;;;;;;;5.00;100.00;98883.19;6181685;23;20192;-91
2023/03/07 01:30:00;;;;;;;0.95;0.93;;;;;;;4.91;100.00;98883.78;6182395;23;20001;-89
2023/03/07 01:32:26;;;;;;;1.02;0.90;;;;;;;4.91;100.00;98872.03;6182118;23;20471;-90
2023/03/07 01:34:51;;;;;;;1.88;1.77;;;;;;;4.85;100.00;98868.25;6207590;23;20445;-90
2023/03/07 01:37:18;;;;;;;1.85;1.73;;;;;;;4.82;100.00;98872.59;6182275;23;20036;-90
2023/03/07 01:39:44;;;;;;;0.57;0.57;;;;;;;4.82;100.00;98871.81;6183084;23;20036;-91
2023/03/07 01:42:14;;;;;;;0.57;0.57;;;;;;;4.74;100.00;98860.22;6160331;23;20023;-89
2023/03/07 01:44:59;;;;;;;0.65;0.65;;;;;;;4.70;100.00;98837.53;6183595;23;20091;-89
2023/03/07 01:47:31;;;;;;;0.93;0.93;;;;;;;4.63;100.00;98843.19;6184608;23;20083;-90
2023/03/07 01:49:58;;;;;;;2.10;0.95;;;;;;;4.63;100.00;98846.72;6210091;23;20368;-91
2023/03/07 01:52:39;;;;;;;0.65;0.63;;;;;;;4.57;100.00;98834.69;6183931;23;20020;-91
2023/03/07 01:55:11;;;;;;;3.80;2.92;;;;;;;4.60;100.00;98850.34;6182739;23;20051;-90
2023/03/07 01:57:39;;;;;;;2.05;1.83;;;;;;;4.62;100.00;98849.88;6158123;23;20013;-90
2023/03/07 02:00:10;;;;;;;0.73;0.73;;;;;;;4.64;100.00;98844.75;6157181;23;20044;-90
2023/03/07 02:02:43;;;;;;;0.52;0.52;;;;;;;4.56;100.00;98841.41;6136360;23;20022;-84
2023/03/07 02:05:17;;;;;;;1.30;1.20;;;;;;;4.65;100.00;98860.03;6071930;23;20060;-84
2023/03/07 02:07:47;;;;;;;5.57;2.70;;;;;;;4.62;100.00;98839.69;6119178;23;20014;-84
2023/03/07 02:10:15;;;;;;;1.25;1.25;;;;;;;4.63;100.00;98860.47;6096215;23;20006;-84
2023/03/07 02:12:41;;;;;;;2.58;2.38;;;;;;;4.65;100.00;98860.03;6119146;23;20119;-84
2023/03/07 02:15:08;;;;;;;0.40;0.40;;;;;;;4.63;100.00;98859.69;6122549;23;20010;-94
2023/03/07 02:17:34;;;;;;;2.85;1.60;;;;;;;4.65;100.00;98860.78;6123194;23;20708;-94
2023/03/07 02:20:24;;;;;;;1.30;1.25;;;;;;;4.68;100.00;98868.22;6097592;23;20022;-94
2023/03/07 02:22:50;;;;;;;1.05;0.95;;;;;;;4.66;100.00;98859.59;6123659;23;20093;-93
2023/03/07 02:25:49;;;;;;;0.88;0.88;;;;;;;4.58;100.00;98858.22;6122104;23;20018;-95
2023/03/07 02:28:16;;;;;;;0.40;0.40;;;;;;;4.54;100.00;98852.03;6122034;23;20463;-94
2023/03/07 02:30:56;;;;;;;1.10;1.10;;;;;;;4.51;100.00;98847.38;6097887;23;20586;-93
2023/03/07 02:33:23;;;;;;;0.25;0.25;;;;;;;4.61;100.00;98854.59;6120069;23;20669;-84
2023/03/07 02:35:55;;;;;;;1.50;1.40;;;;;;;4.56;100.00;98849.63;6119949;23;20010;-84
2023/03/07 02:38:22;;;;;;;1.75;1.48;;;;;;;4.61;100.00;98860.09;6093400;23;20510;-85
2023/03/07 02:40:49;;;;;;;2.38;2.28;;;;;;;4.58;100.00;98854.69;6118602;23;20059;-84
2023/03/07 02:43:15;;;;;;;3.03;2.17;;;;;;;4.66;100.00;98862.34;6118733;23;20024;-94
2023/03/07 02:45:40;;;;;;;1.40;1.35;;;;;;;4.62;100.00;98867.16;6073928;23;20010;-94
2023/03/07 02:48:06;;;;;;;0.90;0.90;;;;;;;4.57;100.00;98853.16;6122281;23;20106;-95
2023/03/07 02:50:32;;;;;;;1.75;1.13;;;;;;;4.60;100.00;98844.06;6096887;23;20061;-94
2023/03/07 02:52:58;;;;;;;0.45;0.45;;;;;;;4.62;100.00;98853.41;6121564;23;20052;-94
2023/03/07 02:55:23;;;;;;;1.08;0.77;;;;;;;4.59;100.00;98859.00;6096859;23;20021;-95
2023/03/07 02:57:58;;;;;;;1.70;1.35;;;;;;;4.57;100.00;98853.91;6120826;23;20097;-94
2023/03/07 03:00:24;;;;;;;1.27;1.17;;;;;;;4.56;100.00;98852.38;6120398;23;20014;-85
2023/03/07 03:02:50;;;;;;;0.60;0.60;;;;;;;4.59;100.00;98859.75;6119482;23;20477;-84
2023/03/07 03:05:18;;;;;;;0.73;0.73;;;;;;;4.63;100.00;98860.47;6119286;23;20516;-85
2023/03/07 03:07:43;;;;;;;1.25;1.25;;;;;;;4.65;100.00;98863.53;6119726;23;20046;-85
2023/03/07 03:10:09;;;;;;;0.52;0.52;;;;;;;4.62;100.00;98861.66;6120627;23;20010;-85
2023/03/07 03:12:35;;;;;;;0.75;0.75;;;;;;;4.61;100.00;98856.59;6095544;23;20770;-95
2023/03/07 03:15:02;;;;;;;0.70;0.70;;;;;;;4.60;100.00;98857.78;6122964;23;20511;-94
2023/03/07 03:17:27;;;;;;;1.30;1.20;;;;;;;4.58;100.00;98862.94;6122013;23;20026;-95
2023/03/07 03:19:53;;;;;;;0.73;0.70;;;;;;;4.63;100.00;98863.22;6123738;23;20542;-93
2023/03/07 03:22:19;;;;;;;0.10;0.10;;;;;;;4.59;100.00;98859.75;6123521;23;20005;-95
2023/03/07 03:24:46;;;;;;;1.38;1.27;;;;;;;4.60;100.00;98866.03;6098385;23;20025;-93
2023/03/07 03:27:15;;;;;;;2.40;2.20;;;;;;;4.55;100.00;98850.81;6097862;23;20392;-94
2023/03/07 03:29:42;;;;;;;0.70;0.70;;;;;;;4.53;100.00;98850.47;6121849;23;20471;-85
2023/03/07 03:32:08;;;;;;;1.92;1.83;;;;;;;4.55;100.00;98853.56;6118734;23;20017;-85
2023/03/07 03:34:34;;;;;;;1.30;1.27;;;;;;;4.49;100.00;98838.03;6119257;23;20065;-85
2023/03/07 03:36:59;;;;;;;1.75;1.65;;;;;;;4.54;100.00;98856.72;6118811;23;20024;-85
2023/03/07 03:39:27;;;;;;;2.45;2.25;;;;;;;4.58;100.00;98857.44;6119679;23;20064;-85
2023/03/07 03:41:57;;;;;;;1.27;1.23;;;;;;;4.59;100.00;98853.50;6122078;23;20092;-94
2023/03/07 03:44:22;;;;;;;1.40;1.38;;;;;;;4.59;100.00;98854.28;6122069;23;20752;-95
2023/03/07 03:46:48;;;;;;;0.25;0.25;;;;;;;4.54;100.00;98849.28;6122576;23;20437;-94
2023/03/07 03:49:16;;;;;;;2.72;2.50;;;;;;;4.58;100.00;98855.47;6098595;23;20423;-94
2023/03/07 03:51:43;;;;;;;1.15;1.15;;;;;;;4.60;100.00;98861.31;6120809;23;20025;-95
2023/03/07 03:54:09;;;;;;;4.13;1.70;;;;;;;4.59;100.00;98859.75;6123208;23;20014;-94
2023/03/07 03:56:35;;;;;;;1.60;1.50;;;;;;;4.63;100.00;98851.44;6121252;23;20021;-93
2023/03/07 03:59:01;;;;;;;0.63;0.63;;;;;;;4.59;100.00;98843.28;6122674;23;20017;-84
2023/03/07 04:01:27;;;;;;;2.63;1.27;;;;;;;4.59;100.00;98848.78;6098882;23;20085;-84
2023/03/07 04:03:54;;;;;;;1.65;1.55;;;;;;;4.53;100.00;98839.47;6123288;23;20021;-84
2023/03/07 04:06:22;;;;;;;0.70;0.70;;;;;;;4.55;100.00;98842.59;6124424;23;20017;-84
2023/03/07 04:08:49;;;;;;;1.13;0.95;;;;;;;4.56;100.00;98844.16;6151884;23;20024;-84
2023/03/07 04:11:14;;;;;;;2.63;1.45;;;;;;;4.53;100.00;98844.97;6127180;23;20305;-93
2023/03/07 04:13:40;;;;;;;8.35;1.63;;;;;;;4.62;100.00;98856.16;6153608;23;20020;-93
2023/03/07 04:16:06;;;;;;;1.70;1.63;;;;;;;4.56;100.00;98849.63;6103707;23;20010;-94
2023/03/07 04:18:33;;;;;;;0.70;0.70;;;;;;;4.59;100.00;98843.28;6102810;23;20017;-96
2023/03/07 04:20:59;;;;;;;0.82;0.70;;;;;;;4.58;100.00;98868.41;6103157;23;20049;-95
2023/03/07 04:23:26;;;;;;;2.13;2.03;;;;;;;4.56;100.00;98865.34;6153112;23;20040;-93
2023/03/07 04:25:54;;;;;;;1.27;1.25;;;;;;;4.52;100.00;98873.66;6103729;23;20013;-94
2023/03/07 04:28:22;;;;;;;5.97;3.17;;;;;;;4.44;100.00;98869.50;6103710;23;20495;-93
2023/03/07 04:30:52;;;;;;;2.58;2.35;;;;;;;4.48;100.00;98872.19;6103965;23;20044;-94
2023/03/07 04:33:18;;;;;;;0.77;0.77;;;;;;;4.50;100.00;98876.03;6153606;23;20070;-95
2023/03/07 04:35:44;;;;;;;1.58;1.48;;;;;;;4.48;100.00;98878.44;6103459;23;20049;-95
2023/03/07 04:38:12;;;;;;;0.73;0.70;;;;;;;4.47;100.00;98868.66;6127370;23;20022;-94
2023/03/07 04:40:37;;;;;;;1.48;1.38;;;;;;;4.48;100.00;98881.19;6128595;23;20084;-93
2023/03/07 04:43:04;;;;;;;2.45;1.92;;;;;;;4.43;100.00;98876.19;6153553;23;20044;-93
2023/03/07 04:45:36;;;;;;;1.25;1.15;;;;;;;4.43;100.00;98878.94;6127175;23;20005;-95
2023/03/07 04:48:02;;;;;;;1.80;1.45;;;;;;;4.48;100.00;98886.69;6103344;23;20212;-93
2023/03/07 04:50:29;;;;;;;0.85;0.85;;;;;;;4.37;100.00;98875.13;6127889;23;20037;-94
2023/03/07 04:52:54;;;;;;;1.42;1.33;;;;;;;4.43;100.00;98892.66;6128131;23;20080;-94
2023/03/07 04:55:20;;;;;;;2.20;1.95;;;;;;;4.35;100.00;98883.03;6128074;23;20068;-93
2023/03/07 04:57:46;;;;;;;1.80;1.10;;;;;;;4.35;100.00;98879.50;6099020;23;20255;-95
2023/03/07 05:00:13;;;;;;;3.67;1.90;;;;;;;4.37;100.00;98886.09;6101417;23;20448;-93
2023/03/07 05:02:39;;;;;;;1.70;1.60;;;;;;;4.40;100.00;98888.03;6127261;23;20018;-95
2023/03/07 05:05:06;;;;;;;2.45;1.40;;;;;;;4.36;100.00;98884.56;6105401;23;20356;-96
2023/03/07 05:07:33;;;;;;;1.55;1.45;;;;;;;4.39;100.00;98888.44;6123528;23;20021;-85
2023/03/07 05:09:58;;;;;;;0.75;0.75;;;;;;;4.38;100.00;98887.66;6123859;23;20009;-85
2023/03/07 05:12:24;;;;;;;0.90;0.90;;;;;;;4.34;100.00;98889.69;6099097;23;20037;-85
2023/03/07 05:14:51;;;;;;;0.90;0.90;;;;;;;4.27;100.00;98881.63;6124599;23;20072;-86
2023/03/07 05:17:18;;;;;;;2.38;1.65;;;;;;;4.27;100.00;98902.81;6123513;23;20567;-85
2023/03/07 05:19:44;;;;;;;1.23;1.17;;;;;;;4.25;100.00;98894.97;6099662;23;20009;-85
2023/03/07 05:22:10;;;;;;;0.47;0.25;;;;;;;4.29;100.00;98895.69;6124463;23;20018;-87
2023/03/07 05:24:35;;;;;;;1.17;1.15;;;;;;;4.26;100.00;98907.50;6098698;23;20472;-85
2023/03/07 05:27:01;;;;;;;1.83;1.58;;;;;;;4.25;100.00;98905.94;6124074;23;20026;-84
2023/03/07 05:29:27;;;;;;;1.55;1.45;;;;;;;4.26;100.00;98904.00;6124854;23;20018;-84
2023/03/07 05:31:54;;;;;;;0.73;0.73;;;;;;;4.19;100.00;98907.66;6123375;23;20018;-85
2023/03/07 05:34:20;;;;;;;0.82;0.82;;;;;;;4.24;100.00;98912.66;6100027;23;20385;-84
2023/03/07 05:36:46;;;;;;;2.38;2.17;;;;;;;4.25;100.00;98922.44;6100645;23;20018;-86
2023/03/07 05:39:14;;;;;;;0.75;0.75;;;;;;;4.24;100.00;98915.41;6122150;23;20052;-85
2023/03/07 05:41:40;;;;;;;1.02;0.70;;;;;;;4.13;100.00;98923.03;6121366;23;20017;-85
2023/03/07 05:44:05;;;;;;;2.58;0.80;;;;;;;4.11;100.00;98918.00;6123575;23;20345;-85
2023/03/07 05:46:31;;;;;;;0.43;0.43;;;;;;;4.09;100.00;98925.09;6098579;23;20020;-85
2023/03/07 05:48:56;;;;;;;0.90;0.90;;;;;;;4.06;100.00;98931.41;6123569;23;20064;-85
2023/03/07 05:51:24;;;;;;;1.40;1.30;;;;;;;4.04;100.00;98928.34;6147883;23;20019;-85
2023/03/07 05:53:50;;;;;;;1.00;1.00;;;;;;;4.06;100.00;98934.94;6098581;23;20383;-85
2023/03/07 05:56:16;;;;;;;1.30;1.20;;;;;;;4.01;100.00;98940.13;6123330;23;20006;-85
2023/03/07 05:58:45;;;;;;;1.00;0.63;;;;;;;4.04;100.00;98942.06;6099042;23;20032;-85
2023/03/07 06:01:10;;;;;;;2.03;1.92;;;;;;;4.00;100.00;98942.13;6123293;23;20025;-84
2023/03/07 06:03:36;;;;;;;1.35;1.33;;;;;;;3.88;100.00;98933.72;6125076;23;20028;-94
2023/03/07 06:06:02;;;;;;;0.75;0.75;;;;;;;3.84;100.00;98933.00;6127280;23;20041;-95
2023/03/07 06:08:28;;;;;;;0.73;0.73;;;;;;;3.94;100.00;98953.97;6127040;23;20014;-93
2023/03/07 06:10:53;;;;;;;3.28;2.60;;;;;;;3.92;100.00;98953.63;6151861;23;20076;-93
2023/03/07 06:13:22;;;;;;;1.02;0.93;;;;;;;3.94;100.00;98960.25;6125780;23;20013;-94
2023/03/07 06:15:49;;;;;;;1.55;1.17;;;;;;;3.90;100.00;98956.00;6126908;23;20010;-93
2023/03/07 06:18:15;;;;;;;0.82;0.75;;;;;;;3.83;100.00;98961.63;6102380;23;20009;-94
2023/03/07 06:20:44;;;;;;;1.52;1.42;;;;;;;3.77;100.00;98953.09;6126844;23;20206;-94
2023/03/07 06:23:09;;;;;;;3.83;2.45;;;;;;;3.80;100.00;98968.72;6124960;23;20185;-83
2023/03/07 06:25:35;;;;;;;2.55;2.35;;;;;;;3.76;100.00;98963.28;6124344;23;20020;-84
2023/03/07 06:28:01;;;;;;;1.65;1.55;;;;;;;3.82;100.00;98966.31;6124650;23;20056;-84
2023/03/07 06:30:29;;;;;;;11.57;2.08;;;;;;;3.83;100.00;98965.13;6124251;23;20021;-84
2023/03/07 06:32:54;;;;;;;2.20;2.10;;;;;;;3.76;100.00;98962.53;6150096;23;20017;-84
2023/03/07 06:35:20;;;;;;;0.80;0.80;;;;;;;3.65;100.00;98959.94;6100185;23;20325;-86
2023/03/07 06:37:49;;;;;;;0.63;0.63;;;;;;;3.71;100.00;98960.25;6100316;23;20017;-83
2023/03/07 06:40:15;;;;;;;2.28;2.08;;;;;;;3.71;100.00;98965.72;6100576;23;20105;-93
2023/03/07 06:42:41;;;;;;;0.35;0.35;;;;;;;3.67;100.00;98976.75;6152980;23;20013;-93
2023/03/07 06:45:09;;;;;;;0.57;0.57;;;;;;;3.63;100.00;98965.06;6102558;23;20356;-92
2023/03/07 06:47:35;;;;;;;2.58;2.42;;;;;;;3.59;100.00;98967.09;6102439;23;20024;-91
2023/03/07 06:50:02;;;;;;;1.70;1.60;;;;;;;3.55;100.00;98985.56;6102651;23;20018;-92
2023/03/07 06:52:28;;;;;;;2.83;1.45;;;;;;;3.51;100.00;98973.09;6103477;23;20425;-92
2023/03/07 06:54:55;;;;;;;2.60;2.40;;;;;;;3.45;100.00;98972.78;6127061;23;20018;-93
2023/03/07 06:57:20;;;;;;;2.20;2.00;;;;;;;3.47;100.00;98989.63;6127429;23;20010;-93
2023/03/07 06:59:46;;;;;;;0.65;0.65;;;;;;;3.49;100.00;98986.44;6125597;23;20120;-92
2023/03/07 07:02:13;;;;;;;2.95;1.83;;;;;;;3.47;100.00;98988.84;6100303;23;20045;-92
2023/03/07 07:04:39;;;;;;;4.68;1.58;;;;;;;3.49;100.00;98983.69;6100250;23;20507;-93
2023/03/07 07:07:06;;;;;;;1.30;1.30;;;;;;;3.37;100.00;98979.56;6148355;23;20076;-92
2023/03/07 07:09:32;;;;;;;2.83;2.60;;;;;;;3.29;100.00;98978.13;6124699;23;20029;-84
2023/03/07 07:11:59;;;;;;;1.13;1.02;;;;;;;3.28;100.00;98960.13;6124623;23;20005;-86
2023/03/07 07:14:25;;;;;;;4.57;2.13;;;;;;;3.29;100.00;98978.13;6150012;23;20017;-85
2023/03/07 07:16:51;;;;;;;1.35;0.65;;;;;;;3.19;100.00;98984.53;6101566;23;20025;-84
2023/03/07 07:19:17;;;;;;;1.95;1.15;;;;;;;3.17;100.00;98981.41;6101805;23;20056;-85
2023/03/07 07:21:43;;;;;;;1.88;0.93;;;;;;;3.05;100.00;98979.25;6126657;23;20025;-84
2023/03/07 07:24:11;;;;;;;12.10;1.10;;;;;;;3.09;100.00;98990.94;6125904;23;20100;-85
2023/03/07 07:26:36;;;;;;;1.20;1.17;;;;;;;3.10;100.00;98982.31;6126207;23;20341;-85
2023/03/07 07:29:02;;;;;;;0.85;0.85;;;;;;;3.08;100.00;98983.88;6152375;23;20012;-84
2023/03/07 07:31:28;;;;;;;2.45;1.35;;;;;;;3.12;100.00;98982.66;6121524;23;20112;-85
2023/03/07 07:33:53;;;;;;;1.42;0.88;;;;;;;3.07;100.00;98993.31;6126725;23;20005;-84
2023/03/07 07:36:19;;;;;;;0.70;0.70;;;;;;;3.13;100.00;99002.63;6097931;23;20013;-94
2023/03/07 07:38:45;;;;;;;1.35;1.35;;;;;;;3.18;100.00;98996.69;6152950;23;20136;-84
2023/03/07 07:41:11;;;;;;;1.27;0.98;;;;;;;3.20;100.00;98997.03;6102152;23;20104;-84
2023/03/07 07:43:37;;;;;;;1.55;1.40;;;;;;;3.03;100.00;98992.59;6151163;23;20013;-85
2023/03/07 07:46:09;;;;;;;1.55;1.48;;;;;;;2.73;100.00;98972.22;6123318;23;20005;-84
2023/03/07 07:48:36;;;;;;;0.77;0.77;;;;;;;2.76;100.00;98989.78;6099103;23;20526;-87
2023/03/07 07:51:02;;;;;;;1.05;0.98;;;;;;;2.71;100.00;98988.25;6099216;23;20101;-84
2023/03/07 07:53:29;;;;;;;1.33;0.82;;;;;;;2.67;100.00;98987.53;6123848;23;20017;-84
2023/03/07 07:55:55;;;;;;;1.95;1.65;;;;;;;2.55;100.00;98974.38;6099320;23;20056;-84
2023/03/07 07:58:20;;;;;;;0.40;0.40;;;;;;;2.49;100.00;98980.72;6148930;23;20348;-85
2023/03/07 08:00:47;;;;;;;1.02;1.00;;;;;;;2.49;100.00;98984.22;6099939;23;20085;-85
2023/03/07 08:03:12;;;;;;;0.52;0.52;;;;;;;2.31;100.00;98976.22;6123312;23;20045;-84
2023/03/07 08:05:43;;;;;;;0.98;0.90;;;;;;;2.38;100.00;98989.06;6125300;23;20020;-95
2023/03/07 08:08:08;;;;;;;0.82;0.82;;;;;;;2.41;100.00;99001.91;6123873;23;20021;-86
2023/03/07 08:10:34;;;;;;;4.03;2.10;;;;;;;2.34;100.00;99002.00;6122769;23;20161;-85
2023/03/07 08:13:00;;;;;;;1.25;1.15;;;;;;;2.27;100.00;98994.63;6122755;23;20041;-86
2023/03/07 08:15:25;;;;;;;1.02;1.02;;;;;;;2.29;100.00;99005.94;6126046;23;20037;-87
2023/03/07 08:17:51;;;;;;;1.27;0.95;;;;;;;2.30;100.00;98999.31;6150339;23;20021;-85
2023/03/07 08:20:21;;;;;;;0.25;0.25;;;;;;;2.38;100.00;99000.00;6101567;23;20005;-85
2023/03/07 08:22:48;;;;;;;1.33;1.23;;;;;;;2.38;100.00;98996.47;6126790;23;20018;-85
2023/03/07 08:25:20;;;;;;;0.82;0.82;;;;;;;2.41;100.00;99001.91;6101192;23;20017;-85
2023/03/07 08:27:46;;;;;;;0.43;0.43;;;;;;;2.38;100.00;99002.75;6125702;23;20352;-85
2023/03/07 08:30:12;;;;;;;1.48;1.35;;;;;;;2.35;100.00;98998.06;6151234;23;20020;-85
2023/03/07 08:32:38;;;;;;;2.35;2.22;;;;;;;2.40;100.00;99000.34;6125579;23;20009;-85
2023/03/07 08:35:04;;;;;;;1.65;1.55;;;;;;;2.40;100.00;99014.03;6126436;23;20268;-95
2023/03/07 08:37:29;;;;;;;3.78;1.63;;;;;;;2.29;100.00;99022.38;6127270;23;20009;-92
2023/03/07 08:39:55;;;;;;;1.25;1.20;;;;;;;2.25;100.00;99009.91;6154039;23;20455;-93
2023/03/07 08:42:20;;;;;;;1.30;1.15;;;;;;;2.13;100.00;99013.16;6153863;23;20012;-93
2023/03/07 08:44:46;;;;;;;1.00;0.88;;;;;;;2.13;100.00;99018.63;6129165;23;20092;-95
2023/03/07 08:47:12;;;;;;;1.75;1.65;;;;;;;2.14;100.00;99018.22;6154198;23;20006;-94
2023/03/07 08:49:39;;;;;;;0.52;0.52;;;;;;;2.14;100.00;99020.19;6154060;23;20017;-95
2023/03/07 08:52:04;;;;;;;1.55;1.45;;;;;;;2.11;100.00;99015.50;6129794;23;20013;-93
2023/03/07 08:54:31;;;;;;;0.73;0.73;;;;;;;2.07;100.00;99009.28;6153941;23;20363;-93
2023/03/07 08:56:57;;;;;;;1.13;1.05;;;;;;;2.05;100.00;99012.44;6153681;23;20089;-92
2023/03/07 08:59:23;;;;;;;1.63;0.88;;;;;;;2.09;100.00;99017.88;6128077;23;20020;-95
2023/03/07 09:01:49;;;;;;;0.63;0.63;;;;;;;2.13;100.00;98999.47;6103964;23;20021;-95
2023/03/07 09:04:14;;;;;;;1.88;1.77;;;;;;;2.05;100.00;98990.56;6105897;23;20141;-95
2023/03/07 09:06:40;;;;;;;0.45;0.45;;;;;;;2.16;100.00;98995.91;6106572;23;20016;-95
2023/03/07 09:09:05;;;;;;;2.25;2.05;;;;;;;2.15;100.00;98991.63;6130484;23;20447;-94
2023/03/07 09:11:31;;;;;;;1.85;1.75;;;;;;;2.23;100.00;98995.84;6155430;23;20335;-95
2023/03/07 09:13:56;;;;;;;0.98;0.95;;;;;;;2.12;100.00;98987.75;6129441;23;20065;-92
2023/03/07 09:18:57;;;;;;;0.93;0.93;;;;;;;2.02;100.00;98979.66;6155140;23;20484;-94
2023/03/07 09:21:23;;;;;;;0.90;0.90;;;;;;;1.88;100.00;98950.47;6171159;23;20018;-96
2023/03/07 09:23:48;;;;;;;1.17;1.08;;;;;;;1.92;100.00;98947.69;6132671;23;20013;-95
2023/03/07 09:26:14;;;;;;;5.22;3.47;;;;;;;1.96;100.00;98938.28;6108126;23;20017;-96
2023/03/07 09:28:40;;;;;;;6.05;2.15;;;;;;;2.09;100.00;98958.47;6133752;23;20056;-96
2023/03/07 09:31:10;;;;;;;0.52;0.52;;;;;;;2.24;100.00;98965.34;6159106;23;20017;-96
2023/03/07 09:33:35;;;;;;;1.25;1.25;;;;;;;2.16;100.00;98963.88;6134309;23;20070;-96
2023/03/07 09:36:06;;;;;;;1.85;0.98;;;;;;;2.02;100.00;98953.06;6161283;23;20057;-96
2023/03/07 09:38:32;;;;;;;0.65;0.65;;;;;;;2.07;100.00;98952.63;6167314;23;20009;-96
2023/03/07 09:41:17;;;;;;;0.63;0.63;;;;;;;2.16;100.00;98952.91;6147742;23;20017;-96
2023/03/07 09:43:50;;;;;;;0.95;0.95;;;;;;;2.19;100.00;98934.91;6150094;23;20013;-96
2023/03/07 09:47:10;;;;;;;4.97;1.77;;;;;;;2.52;100.00;98979.91;6158976;23;20071;-96
2023/03/07 09:49:46;;;;;;;0.73;0.73;;;;;;;2.58;100.00;98976.31;6152907;23;20024;-96
2023/03/07 09:52:22;;;;;;;1.85;1.30;;;;;;;2.46;100.00;98960.41;6153311;23;20009;-96
2023/03/07 09:55:04;;;;;;;1.55;0.93;;;;;;;2.65;100.00;98978.97;6156492;23;20088;-96
2023/03/07 09:57:37;;;;;;;0.60;0.60;;;;;;;2.64;100.00;98977.41;6143382;23;20013;-96
2023/03/07 10:00:10;;;;;;;0.20;0.20;;;;;;;2.39;100.00;98938.59;6112204;23;20013;-94
2023/03/07 10:02:45;;;;;;;7.05;2.05;;;;;;;2.73;100.00;98977.69;6171410;23;20048;-94
2023/03/07 10:05:17;;;;;;;2.45;1.35;;;;;;;2.45;100.00;98947.91;6154609;23;20016;-94
2023/03/07 10:07:43;;;;;;;0.20;0.20;;;;;;;2.65;100.00;98972.72;6180079;23;20132;-95
2023/03/07 10:13:06;;;;;;;0.75;0.75;;;;;;;2.45;100.00;98925.25;6095523;23;20022;-94
2023/03/07 10:21:06;;;;;;;1.05;1.05;;;;;;;2.59;100.00;98963.41;6152561;23;20415;-86
2023/03/07 10:23:41;;;;;;;3.10;2.35;;;;;;;2.49;100.00;98947.88;6151563;23;20455;-87
2023/03/07 10:26:10;;;;;;;1.00;1.00;;;;;;;2.45;100.00;98941.66;6152406;23;20017;-88
2023/03/07 10:28:39;;;;;;;1.20;1.10;;;;;;;2.48;100.00;98941.63;6151699;23;20017;-88
2023/03/07 10:31:24;;;;;;;0.43;0.43;;;;;;;2.58;100.00;98950.91;6146558;23;20054;-95
2023/03/07 10:33:51;;;;;;;2.05;1.30;;;;;;;2.63;100.00;98951.19;6179477;23;20044;-96
2023/03/07 10:36:42;;;;;;;0.77;0.73;;;;;;;2.72;100.00;98951.50;6173376;23;20009;-94
2023/03/07 10:39:29;;;;;;;1.75;1.65;;;;;;;2.78;100.00;98960.81;6176164;23;20018;-96
2023/03/07 10:41:56;;;;;;;6.35;1.50;;;;;;;2.83;100.00;98956.06;6177552;23;20020;-96
2023/03/07 10:44:22;;;;;;;1.23;1.08;;;;;;;2.85;100.00;98953.69;6178249;23;20002;-95
2023/03/07 10:46:54;;;;;;;2.10;1.23;;;;;;;2.84;100.00;98958.38;6141436;23;20508;-87
2023/03/07 10:49:28;;;;;;;0.80;0.80;;;;;;;2.74;100.00;98937.41;6152487;23;20021;-87
2023/03/07 10:52:13;;;;;;;2.47;2.28;;;;;;;2.83;100.00;98938.44;6151053;23;20018;-87
2023/03/07 10:54:39;;;;;;;0.52;0.45;;;;;;;2.69;100.00;98924.94;6151906;23;20010;-87
2023/03/07 10:57:06;;;;;;;0.77;0.77;;;;;;;2.68;100.00;98917.13;6151841;23;20072;-86
2023/03/07 10:59:32;;;;;;;0.65;0.65;;;;;;;2.81;100.00;98924.38;6154985;23;20017;-86
2023/03/07 11:01:59;;;;;;;0.85;0.85;;;;;;;2.78;100.00;98917.00;6152477;23;20009;-87
2023/03/07 11:04:27;;;;;;;2.28;1.38;;;;;;;2.93;100.00;98923.03;6126687;23;20049;-86
2023/03/07 11:06:55;;;;;;;3.17;2.00;;;;;;;2.95;100.00;98908.94;6150688;23;20133;-87
2023/03/07 11:09:22;;;;;;;0.70;0.70;;;;;;;3.06;100.00;98915.03;6151252;23;20033;-87
2023/03/07 11:11:55;;;;;;;2.25;2.05;;;;;;;3.11;100.00;98893.44;6153309;23;20010;-87
2023/03/07 11:14:22;;;;;;;0.85;0.85;;;;;;;3.06;100.00;98876.69;6126777;23;20105;-88
2023/03/07 11:16:59;;;;;;;1.02;0.73;;;;;;;3.08;100.00;98882.50;6151694;23;20081;-87
2023/03/07 11:19:42;;;;;;;0.90;0.90;;;;;;;3.22;100.00;98890.53;6151063;23;20478;-87
2023/03/07 11:22:24;;;;;;;4.43;2.53;;;;;;;3.22;100.00;98876.84;6126559;23;20017;-87
2023/03/07 11:25:14;;;;;;;0.52;0.52;;;;;;;3.38;100.00;98893.41;6102076;23;20495;-84
2023/03/07 11:30:23;;;;;;;3.80;2.28;;;;;;;3.37;100.00;98889.09;6153128;23;20369;-87
2023/03/07 11:32:57;;;;;;;1.67;1.35;;;;;;;3.36;100.00;98867.63;6152657;23;20444;-87
2023/03/07 11:35:38;;;;;;;;;;;;;;;3.28;100.00;98875.16;6152645;23;20017;-86
2023/03/07 11:38:13;;;;;;;1.50;1.42;;;;;;;3.28;100.00;98867.72;6102008;23;19972;-86
2023/03/07 11:40:42;;;;;;;0.93;0.93;;;;;;;3.33;100.00;98871.94;6126991;23;20380;-85
2023/03/07 12:29:34;;;;;;;3.00;2.80;;;;;;;3.74;100.00;98801.09;6152001;23;20026;-94
2023/03/07 12:32:05;;;;;;;1.98;1.75;;;;;;;3.61;100.00;98780.19;6100677;23;20040;-93
2023/03/07 12:35:22;;;;;;;1.17;1.17;;;;;;;3.78;100.00;98787.31;6099865;23;20021;-93
2023/03/07 12:37:49;;;;;;;4.40;1.80;;;;;;;3.90;100.00;98792.19;6052625;23;20497;-92
2023/03/07 12:40:21;;;;;;;0.95;0.90;;;;;;;3.96;100.00;98778.75;6101385;23;20075;-93